Time;durP1;ratioP1;P1;durP2;ratioP2;P2;SDS_P1;SDS_P2;PMS_P1;PMS_P2;Temp;Humidity;BMP_temperature;BMP_pressure;BME280_temperature;BME280_humidity;BME280_pressure;Samples;Min_cycle;Max_cycle;Signal;HPM_P1;HPM_P2
2024/04/08 00:00:18;;;;;;;11.47;2.40;;;;;;;23.18;36.76;96941.06;5037528;28;20588;-71
2024/04/08 00:02:43;;;;;;;12.43;2.80;;;;;;;23.07;37.04;96948.06;5039326;28;20434;-71
2024/04/08 00:05:08;;;;;;;9.20;2.43;;;;;;;23.07;37.16;96932.03;5038326;28;20190;-71
2024/04/08 00:07:34;;;;;;;14.17;2.97;;;;;;;22.98;37.51;96945.00;5020833;28;20180;-70
2024/04/08 00:09:59;;;;;;;16.57;2.80;;;;;;;23.01;37.36;96946.38;5041217;28;20335;-70
2024/04/08 00:12:25;;;;;;;13.00;2.77;;;;;;;23.01;37.73;96949.03;5028602;28;20211;-69
2024/04/08 00:14:52;;;;;;;10.43;2.87;;;;;;;22.98;37.77;96944.16;5041308;28;20559;-70
2024/04/08 00:17:17;;;;;;;11.50;2.77;;;;;;;;;;5027842;28;20207;-69
2024/04/08 00:19:43;;;;;;;16.60;2.67;;;;;;;22.91;38.40;96941.63;5036168;28;20453;-70
2024/04/08 00:22:08;;;;;;;7.63;2.60;;;;;;;22.91;38.26;96938.16;5048607;28;20203;-70
2024/04/08 00:24:34;;;;;;;11.33;2.70;;;;;;;22.81;38.19;96944.91;5025698;28;20482;-69
2024/04/08 00:26:59;;;;;;;22.10;2.93;;;;;;;22.77;38.28;96938.44;5033096;28;20186;-71
2024/04/08 00:29:26;;;;;;;11.30;2.90;;;;;;;22.59;39.21;96942.09;5031822;28;20198;-70
2024/04/08 00:31:52;;;;;;;9.87;2.87;;;;;;;22.62;38.98;96936.25;5034993;28;20211;-70
2024/04/08 00:34:18;;;;;;;18.60;2.93;;;;;;;22.48;38.94;96930.38;5031928;28;20430;-70
2024/04/08 00:36:43;;;;;;;10.40;2.53;;;;;;;22.52;38.74;96926.22;5035718;28;20857;-70
2024/04/08 00:39:09;;;;;;;10.50;2.53;;;;;;;22.53;38.49;96927.84;5038066;28;20183;-71
2024/04/08 00:41:34;;;;;;;12.73;3.00;;;;;;;22.46;38.39;96927.13;5038339;28;20706;-70
2024/04/08 00:44:00;;;;;;;11.73;2.57;;;;;;;22.38;38.77;96927.47;5030246;28;20633;-69
2024/04/08 00:46:25;;;;;;;9.90;2.50;;;;;;;22.33;38.75;96938.88;5029484;28;20180;-70
2024/04/08 00:48:52;;;;;;;12.53;3.17;;;;;;;22.25;38.72;96942.69;5031858;28;20652;-70
2024/04/08 00:51:18;;;;;;;16.27;3.00;;;;;;;22.29;39.52;96943.03;5036136;28;20223;-70
2024/04/08 00:53:43;;;;;;;8.73;2.57;;;;;;;22.08;40.02;96937.25;5037127;28;20484;-70
2024/04/08 00:56:09;;;;;;;11.33;2.77;;;;;;;22.08;39.88;96941.78;5030685;28;20435;-69
2024/04/08 00:58:38;;;;;;;14.27;2.73;;;;;;;22.01;40.49;96925.09;5043240;28;20206;-71
2024/04/08 01:01:05;;;;;;;25.07;3.60;;;;;;;22.00;39.98;96928.78;5029731;28;20912;-70
2024/04/08 01:03:31;;;;;;;14.30;2.80;;;;;;;22.11;39.15;96930.66;5019529;28;20515;-69
2024/04/08 01:05:57;;;;;;;16.30;2.90;;;;;;;22.18;38.85;96925.19;5027508;28;20429;-70
2024/04/08 01:08:23;;;;;;;21.17;3.20;;;;;;;22.13;39.05;96933.06;5027333;28;20188;-71
2024/04/08 01:10:48;;;;;;;8.97;2.53;;;;;;;22.04;39.35;96933.44;5033158;28;20275;-70
2024/04/08 01:13:14;;;;;;;12.87;2.67;;;;;;;21.88;39.48;96934.94;5028349;28;20608;-70
2024/04/08 01:15:40;;;;;;;10.90;2.83;;;;;;;21.95;39.27;96934.81;5031282;28;20628;-71
2024/04/08 01:18:05;;;;;;;10.77;2.30;;;;;;;21.89;39.44;96933.91;5028068;28;20175;-71
2024/04/08 01:20:31;;;;;;;14.63;2.97;;;;;;;21.90;39.48;96924.84;5032116;28;20206;-70
2024/04/08 01:24:11;;;;;;;12.50;2.30;;;;;;;21.98;39.21;96914.88;5516020;25;20542;-70
2024/04/08 01:26:37;;;;;;;13.47;2.90;;;;;;;22.01;39.20;96919.75;5522185;25;20525;-70
2024/04/08 01:29:02;;;;;;;10.67;3.40;;;;;;;22.07;39.44;96908.13;5523750;25;20344;-70
2024/04/08 01:31:28;;;;;;;20.10;2.90;;;;;;;22.14;39.43;96911.50;5515879;25;21003;-70
2024/04/08 01:33:53;;;;;;;11.60;2.60;;;;;;;22.14;39.70;96905.34;5489785;25;20251;-70
2024/04/08 01:36:19;;;;;;;18.10;2.83;;;;;;;22.12;39.26;96905.59;5495221;25;21090;-70
2024/04/08 01:38:44;;;;;;;7.63;2.73;;;;;;;22.08;39.52;96910.59;5490048;25;21011;-68
2024/04/08 01:41:10;;;;;;;11.23;2.90;;;;;;;22.10;39.76;96899.66;5499919;25;20294;-69
2024/04/08 01:43:35;;;;;;;8.27;2.60;;;;;;;22.09;39.96;96904.22;5500695;25;20325;-68
2024/04/08 01:46:00;;;;;;;12.43;3.00;;;;;;;22.13;39.53;96901.03;5496356;25;20272;-71
2024/04/08 01:48:26;;;;;;;10.40;2.50;;;;;;;22.11;39.46;96908.50;5499327;25;20287;-70
2024/04/08 01:50:51;;;;;;;15.53;3.83;;;;;;;22.03;39.76;96907.78;5488342;25;20230;-68
2024/04/08 01:53:17;;;;;;;9.33;2.77;;;;;;;22.03;40.01;96901.66;5494387;25;20249;-71
2024/04/08 01:55:42;;;;;;;15.67;2.80;;;;;;;21.96;40.28;96893.78;5481046;25;20234;-70
2024/04/08 01:58:08;;;;;;;11.73;3.23;;;;;;;22.02;40.07;96894.69;5478608;26;20346;-70
2024/04/08 02:00:33;;;;;;;8.47;2.67;;;;;;;21.99;39.58;96890.63;5487351;25;20264;-69
2024/04/08 02:02:59;;;;;;;15.17;2.70;;;;;;;21.81;39.70;96888.88;5500278;25;20238;-70
2024/04/08 02:05:24;;;;;;;8.97;2.70;;;;;;;21.81;40.04;96885.44;5498781;25;20351;-71
2024/04/08 02:07:50;;;;;;;12.20;2.73;;;;;;;21.82;39.71;96889.72;5490910;25;20647;-71
2024/04/08 02:10:18;;;;;;;13.60;2.73;;;;;;;21.90;40.01;96892.84;5480182;25;20580;-69
2024/04/08 02:12:43;;;;;;;8.97;2.50;;;;;;;21.92;40.31;96896.09;5486697;25;20578;-70
2024/04/08 02:15:08;;;;;;;12.60;3.37;;;;;;;21.76;40.56;96900.25;5485047;26;20448;-70
2024/04/08 02:17:34;;;;;;;11.37;2.57;;;;;;;21.72;41.01;96893.78;5486527;25;20237;-70
2024/04/08 02:19:59;;;;;;;9.17;2.47;;;;;;;21.78;41.24;96905.38;5499774;25;20337;-68
2024/04/08 02:22:25;;;;;;;12.20;3.17;;;;;;;21.79;40.78;96907.00;5487906;25;20305;-69
2024/04/08 02:24:50;;;;;;;11.63;2.70;;;;;;;21.75;40.50;96905.84;5479507;25;20273;-70
2024/04/08 02:27:16;;;;;;;18.27;2.93;;;;;;;21.77;40.46;96914.41;5498296;25;20234;-69
2024/04/08 02:29:42;;;;;;;15.20;3.40;;;;;;;21.78;40.87;96926.72;5478282;25;20270;-71
2024/04/08 02:32:07;;;;;;;10.00;3.07;;;;;;;21.75;40.60;96938.63;5485252;25;20246;-71
2024/04/08 02:34:33;;;;;;;7.13;2.23;;;;;;;21.64;40.83;96939.44;5480954;25;21127;-70
2024/04/08 02:36:58;;;;;;;18.23;2.83;;;;;;;21.49;40.50;96931.84;5482602;26;20279;-70
2024/04/08 02:39:24;;;;;;;18.43;3.30;;;;;;;21.44;41.06;96937.03;5480700;26;20230;-70
2024/04/08 02:41:49;;;;;;;10.40;2.73;;;;;;;21.47;41.44;96932.09;5473064;26;20797;-71
2024/04/08 02:44:14;;;;;;;6.00;2.50;;;;;;;21.47;40.56;96937.44;5462754;26;20339;-71
2024/04/08 02:46:40;;;;;;;13.73;3.10;;;;;;;21.48;40.89;96919.56;5468136;26;20246;-72
2024/04/08 02:49:05;;;;;;;14.70;2.73;;;;;;;21.46;40.36;96925.13;5471622;26;20280;-70
2024/04/08 02:51:31;;;;;;;10.03;2.90;;;;;;;21.31;40.99;96925.53;5470066;26;20289;-69
2024/04/08 02:53:56;;;;;;;18.03;3.40;;;;;;;21.38;41.34;96927.31;5483925;26;20273;-71
2024/04/08 02:56:22;;;;;;;14.50;2.90;;;;;;;21.43;39.84;96930.91;5463647;26;20290;-71
2024/04/08 02:58:48;;;;;;;17.03;3.33;;;;;;;21.42;40.24;96923.16;5473699;26;20248;-69
2024/04/08 03:01:14;;;;;;;9.33;2.70;;;;;;;21.42;41.24;96929.28;5462051;26;20247;-71
2024/04/08 03:03:40;;;;;;;21.27;2.73;;;;;;;21.42;40.36;96936.50;5468008;26;20238;-69
2024/04/08 03:06:09;;;;;;;15.70;3.37;;;;;;;21.45;39.49;96920.84;5477537;26;20534;-70
2024/04/08 03:08:35;;;;;;;13.53;2.80;;;;;;;21.45;39.88;96923.50;5465890;26;20477;-68
2024/04/08 03:11:02;;;;;;;9.17;2.63;;;;;;;21.47;39.60;96925.94;5459042;26;20472;-71
2024/04/08 03:13:28;;;;;;;11.60;3.30;;;;;;;21.48;39.38;96927.56;5463026;26;20468;-69
2024/04/08 03:15:54;;;;;;;11.27;2.90;;;;;;;21.39;39.59;96924.41;5465087;26;20906;-70
2024/04/08 03:18:19;;;;;;;12.83;2.67;;;;;;;21.40;40.01;96930.56;5475242;26;20246;-69
2024/04/08 03:21:00;;;;;;;12.37;2.80;;;;;;;21.31;40.46;96936.22;5466994;26;21035;-69
2024/04/08 03:23:25;;;;;;;8.30;2.70;;;;;;;21.25;40.98;96931.81;5473828;26;20241;-70
2024/04/08 03:26:05;;;;;;;9.57;2.43;;;;;;;21.28;41.01;96941.19;5479293;26;20463;-71
2024/04/08 03:28:30;;;;;;;9.70;2.40;;;;;;;21.27;41.26;96942.22;5466272;26;20235;-69
2024/04/08 03:30:57;;;;;;;10.93;2.70;;;;;;;21.18;41.52;96939.06;5479092;26;20471;-69
2024/04/08 03:33:25;;;;;;;17.03;3.07;;;;;;;21.11;41.34;96951.69;5466553;26;20247;-70
2024/04/08 03:35:51;;;;;;;9.40;2.97;;;;;;;20.99;40.24;96938.31;5475759;26;20468;-70
2024/04/08 03:38:17;;;;;;;8.87;3.40;;;;;;;20.96;39.87;96947.56;5481126;26;20566;-69
2024/04/08 03:40:43;;;;;;;12.20;2.80;;;;;;;20.97;40.29;96948.38;5463229;26;20456;-69
2024/04/08 03:43:08;;;;;;;27.57;3.60;;;;;;;20.99;40.15;96963.09;5473781;26;20246;-69
2024/04/08 03:45:34;;;;;;;16.63;2.90;;;;;;;21.01;40.90;96958.38;5475585;26;20995;-70
2024/04/08 03:47:59;;;;;;;12.70;3.43;;;;;;;20.90;41.43;96958.31;5465682;26;20240;-70
2024/04/08 03:50:34;;;;;;;10.40;3.20;;;;;;;20.75;41.55;96961.34;5463450;26;20242;-70
2024/04/08 03:52:59;;;;;;;18.23;3.50;;;;;;;20.67;41.42;96965.09;5458737;26;20728;-69
2024/04/08 03:55:28;;;;;;;21.97;3.67;;;;;;;20.72;41.47;96965.25;5453890;26;20505;-71
2024/04/08 03:57:54;;;;;;;12.13;3.20;;;;;;;20.75;41.83;96969.34;5469027;26;20242;-70
2024/04/08 04:00:20;;;;;;;17.83;2.90;;;;;;;20.71;41.97;96961.78;5465046;26;20545;-71
2024/04/08 04:02:45;;;;;;;10.17;3.10;;;;;;;20.70;41.41;96964.66;5480296;26;20773;-69
2024/04/08 04:05:11;;;;;;;11.20;3.20;;;;;;;20.66;41.71;96968.81;5454455;26;20712;-69
2024/04/08 04:07:37;;;;;;;11.40;2.80;;;;;;;20.66;42.18;96972.28;5463157;26;20246;-70
2024/04/08 04:10:08;;;;;;;16.00;3.00;;;;;;;20.62;42.08;96971.09;5481427;26;20238;-69
2024/04/08 04:12:36;;;;;;;9.53;3.40;;;;;;;20.47;42.63;96957.34;5461873;26;20524;-70
2024/04/08 04:15:14;;;;;;;12.37;3.07;;;;;;;20.45;43.16;96962.91;5472078;26;20477;-68
2024/04/08 04:17:40;;;;;;;20.67;3.50;;;;;;;20.40;43.05;96966.22;5478117;26;20467;-71
2024/04/08 04:20:09;;;;;;;15.57;3.30;;;;;;;20.36;42.77;96966.88;5471558;26;20570;-69
2024/04/08 04:22:35;;;;;;;15.50;3.30;;;;;;;20.32;42.52;96966.50;5483881;26;20533;-70
2024/04/08 04:25:01;;;;;;;17.43;3.63;;;;;;;20.35;42.40;96967.94;5455229;26;20515;-70
2024/04/08 04:27:27;;;;;;;14.70;3.40;;;;;;;20.31;42.79;96966.72;5469465;26;21154;-70
2024/04/08 04:29:52;;;;;;;14.80;4.27;;;;;;;20.25;42.86;96968.44;5482019;26;20340;-70
2024/04/08 04:32:18;;;;;;;21.03;3.53;;;;;;;20.11;42.82;96965.06;5467606;26;20285;-70
2024/04/08 04:34:43;;;;;;;15.70;3.53;;;;;;;20.18;42.48;96970.31;5475331;26;20250;-69
2024/04/08 04:37:09;;;;;;;13.57;3.60;;;;;;;20.19;42.89;96974.63;5459738;26;20269;-70
2024/04/08 04:39:34;;;;;;;14.00;3.77;;;;;;;20.19;43.39;96959.47;5456245;26;20727;-70
2024/04/08 04:41:59;;;;;;;17.77;4.07;;;;;;;20.20;43.68;96966.44;5470001;26;20238;-71
2024/04/08 04:44:25;;;;;;;10.13;3.33;;;;;;;20.19;43.25;96958.66;5466990;26;20286;-70
2024/04/08 04:46:50;;;;;;;13.77;3.20;;;;;;;20.18;43.52;96954.38;5459737;26;20732;-70
2024/04/08 04:49:17;;;;;;;12.83;2.70;;;;;;;20.14;43.67;96947.88;5462302;26;20240;-70
2024/04/08 04:51:43;;;;;;;9.30;3.30;;;;;;;20.07;43.02;96950.59;5463207;26;20242;-70
2024/04/08 04:54:08;;;;;;;28.20;3.53;;;;;;;20.05;43.48;96948.13;5481177;26;20495;-71
2024/04/08 04:56:34;;;;;;;16.77;3.00;;;;;;;20.01;43.92;96944.31;5472631;26;20306;-70
2024/04/08 04:58:59;;;;;;;12.00;3.70;;;;;;;20.05;43.58;96940.16;5469129;26;20246;-70
2024/04/08 05:01:24;;;;;;;22.27;3.17;;;;;;;20.08;43.51;96947.72;5481585;26;20238;-70
2024/04/08 05:03:50;;;;;;;16.07;3.63;;;;;;;19.97;43.89;96956.41;5479527;26;20238;-71
2024/04/08 05:06:16;;;;;;;12.93;3.57;;;;;;;20.00;44.06;96950.66;5479177;26;20295;-70
2024/04/08 05:08:41;;;;;;;7.87;3.63;;;;;;;20.02;43.46;96964.56;5475448;26;20246;-71
2024/04/08 05:11:07;;;;;;;14.63;3.47;;;;;;;20.10;42.49;96977.56;5471356;26;20238;-70
2024/04/08 05:13:32;;;;;;;16.47;3.20;;;;;;;20.20;42.57;96986.88;5475151;26;20288;-69
2024/04/08 05:15:59;;;;;;;22.10;3.80;;;;;;;20.10;43.90;96977.56;5465829;26;20286;-70
2024/04/08 05:18:25;;;;;;;18.97;4.97;;;;;;;20.05;44.35;96982.72;5481187;26;20922;-70
2024/04/08 05:20:51;;;;;;;10.03;4.33;;;;;;;20.12;44.79;96984.50;5463311;26;20476;-72
2024/04/08 05:23:17;;;;;;;11.57;3.03;;;;;;;20.07;44.55;96991.28;5459456;26;20282;-71
2024/04/08 05:25:42;;;;;;;17.23;4.40;;;;;;;20.05;44.53;96985.38;5479348;26;20592;-71
2024/04/08 05:28:08;;;;;;;18.70;3.40;;;;;;;20.08;44.44;96998.25;5478175;26;20547;-70
2024/04/08 05:30:33;;;;;;;13.37;3.83;;;;;;;20.02;44.38;96999.13;5474298;26;20241;-71
2024/04/08 05:32:59;;;;;;;15.10;3.57;;;;;;;20.08;44.38;96990.25;5464048;26;20293;-71
2024/04/08 05:35:24;;;;;;;13.30;3.40;;;;;;;20.13;44.35;96994.13;5472967;26;20349;-71
2024/04/08 05:37:49;;;;;;;14.10;4.20;;;;;;;20.16;44.28;96988.38;5476019;26;20301;-71
2024/04/08 05:40:16;;;;;;;18.90;4.13;;;;;;;20.17;44.41;96984.66;5484312;26;20331;-70
2024/04/08 05:42:43;;;;;;;15.83;3.13;;;;;;;20.18;44.22;96986.28;5453622;26;20693;-72
2024/04/08 05:45:09;;;;;;;16.40;4.33;;;;;;;20.20;43.71;96982.41;5478910;26;21146;-71
2024/04/08 05:47:34;;;;;;;16.53;3.20;;;;;;;20.30;42.88;96984.53;5480362;26;20475;-70
2024/04/08 05:50:00;;;;;;;12.97;3.50;;;;;;;20.38;42.94;96981.59;5474064;26;20687;-71
2024/04/08 05:52:25;;;;;;;22.40;4.20;;;;;;;20.46;43.14;96974.34;5468573;26;20731;-71
2024/04/08 05:54:51;;;;;;;19.23;4.17;;;;;;;20.32;43.85;96982.47;5477231;26;20582;-71
2024/04/08 05:57:17;;;;;;;11.43;3.87;;;;;;;20.39;44.25;96977.06;5481679;26;20246;-72
2024/04/08 05:59:42;;;;;;;15.73;3.83;;;;;;;20.31;44.94;96983.50;5455742;26;21088;-71
2024/04/08 06:02:10;;;;;;;17.60;3.77;;;;;;;20.32;44.62;96973.69;5479068;26;20857;-71
2024/04/08 06:04:36;;;;;;;19.73;3.57;;;;;;;20.46;44.50;96969.84;5478536;26;20250;-70
2024/04/08 06:07:01;;;;;;;17.53;3.50;;;;;;;20.52;44.55;96973.47;5479887;26;20539;-70
2024/04/08 06:09:26;;;;;;;14.70;3.80;;;;;;;20.62;44.94;96973.75;5480639;26;20249;-73
2024/04/08 06:11:52;;;;;;;17.57;3.97;;;;;;;20.69;44.78;96971.81;5462264;26;20246;-72
2024/04/08 06:14:18;;;;;;;19.90;3.77;;;;;;;20.78;44.99;96977.69;5478418;26;20235;-73
2024/04/08 06:16:44;;;;;;;22.13;4.07;;;;;;;20.86;44.99;96976.59;5461394;26;20287;-72
2024/04/08 06:19:09;;;;;;;19.33;3.53;;;;;;;20.97;44.22;96975.03;5462840;26;21357;-72
2024/04/08 06:21:35;;;;;;;16.10;3.47;;;;;;;21.06;43.33;96983.50;5481406;26;20277;-71
2024/04/08 06:24:01;;;;;;;10.07;3.00;;;;;;;21.14;42.70;96980.53;5474947;26;20237;-72
2024/04/08 06:26:26;;;;;;;10.90;3.37;;;;;;;21.23;42.15;96979.19;5482498;26;20238;-73
2024/04/08 06:28:51;;;;;;;17.00;3.57;;;;;;;21.35;41.47;96979.22;5473390;26;20819;-72
2024/04/08 06:31:17;;;;;;;11.07;3.37;;;;;;;21.49;44.52;96975.31;5485209;26;20356;-73
2024/04/08 06:33:42;;;;;;;24.60;4.47;;;;;;;21.65;44.61;96983.72;5473595;26;20254;-72
2024/04/08 06:36:09;;;;;;;28.60;3.80;;;;;;;21.75;44.28;96977.84;5480923;26;20302;-72
2024/04/08 06:38:34;;;;;;;14.20;3.50;;;;;;;21.88;44.69;96979.47;5461578;26;20234;-71
2024/04/08 06:41:00;;;;;;;17.83;3.27;;;;;;;22.01;45.02;96983.78;5473177;26;21336;-72
2024/04/08 06:43:25;;;;;;;21.80;3.97;;;;;;;22.11;44.20;96973.34;5465247;26;20305;-72
2024/04/08 06:45:55;;;;;;;10.77;3.40;;;;;;;22.23;43.27;96981.34;5472435;26;20238;-71
2024/04/08 06:48:20;;;;;;;29.97;3.80;;;;;;;22.35;42.50;96973.31;5476377;26;20273;-71
2024/04/08 06:50:46;;;;;;;19.80;4.70;;;;;;;22.38;40.04;96971.00;5478953;26;20456;-71
2024/04/08 06:53:11;;;;;;;20.77;5.77;;;;;;;22.53;39.32;96980.41;5462979;26;20537;-71
2024/04/08 06:55:37;;;;;;;18.43;5.20;;;;;;;22.68;38.35;96972.72;5458368;26;20250;-71
2024/04/08 06:58:02;;;;;;;20.07;4.90;;;;;;;22.79;37.96;96968.41;5467975;26;20268;-71
2024/04/08 07:00:28;;;;;;;17.60;4.70;;;;;;;22.90;38.59;96958.72;5480209;26;20319;-69
2024/04/08 07:02:53;;;;;;;21.27;4.90;;;;;;;23.07;39.68;96969.44;5479379;26;20300;-71
2024/04/08 07:05:19;;;;;;;24.47;5.00;;;;;;;23.25;39.49;96965.00;5473028;26;20243;-73
2024/04/08 07:07:44;;;;;;;13.00;4.37;;;;;;;23.38;39.83;96964.72;5482485;26;20238;-71
2024/04/08 07:10:10;;;;;;;20.20;4.17;;;;;;;23.48;38.16;96964.09;5483756;26;20239;-71
2024/04/08 07:12:35;;;;;;;9.50;3.50;;;;;;;23.64;37.90;96959.78;5466867;26;20242;-71
2024/04/08 07:15:02;;;;;;;14.90;3.73;;;;;;;23.76;37.58;96955.19;5476371;26;20297;-71
2024/04/08 07:17:27;;;;;;;14.10;3.30;;;;;;;23.86;36.05;96957.22;5483232;26;20349;-73
2024/04/08 07:19:53;;;;;;;22.27;3.30;;;;;;;23.95;34.42;96952.22;5482780;26;20472;-71
2024/04/08 07:22:18;;;;;;;11.50;2.63;;;;;;;24.06;34.44;96954.06;5463607;26;20255;-73
2024/04/08 07:24:44;;;;;;;17.73;3.30;;;;;;;24.17;34.29;96943.50;5482151;26;20274;-70
2024/04/08 07:27:10;;;;;;;13.13;3.00;;;;;;;24.34;34.47;96949.59;5483449;26;20626;-72
2024/04/08 07:29:36;;;;;;;16.10;3.27;;;;;;;24.37;33.28;96953.69;5481250;26;20476;-71
2024/04/08 07:32:01;;;;;;;25.53;3.17;;;;;;;24.55;33.58;96941.84;5482486;26;20338;-72
2024/04/08 07:34:27;;;;;;;14.47;3.73;;;;;;;24.71;33.47;96940.19;5481531;26;20246;-72
2024/04/08 07:36:52;;;;;;;13.30;3.17;;;;;;;24.79;32.74;96944.31;5480442;26;20242;-71
2024/04/08 07:39:18;;;;;;;18.57;3.17;;;;;;;24.86;33.22;96938.75;5480873;26;20575;-73
2024/04/08 07:41:43;;;;;;;11.37;3.13;;;;;;;25.00;32.33;96940.78;5482293;26;20246;-72
2024/04/08 07:44:09;;;;;;;14.33;3.63;;;;;;;25.20;32.87;96944.75;5458624;26;20278;-73
2024/04/08 07:46:35;;;;;;;14.57;3.10;;;;;;;25.35;32.26;96943.25;5469530;26;20273;-72
2024/04/08 07:49:01;;;;;;;8.80;2.60;;;;;;;25.54;32.89;96938.34;5465266;26;20322;-70
2024/04/08 07:51:27;;;;;;;6.10;3.10;;;;;;;25.70;33.20;96937.41;5472862;26;20479;-69
2024/04/08 07:53:53;;;;;;;21.00;3.50;;;;;;;25.86;32.65;96937.53;5465314;26;20265;-70
2024/04/08 07:56:19;;;;;;;17.60;3.50;;;;;;;26.03;32.73;96934.69;5469945;26;20712;-70
2024/04/08 07:58:45;;;;;;;23.07;3.80;;;;;;;26.09;31.62;96933.66;5483675;26;20467;-71
2024/04/08 08:01:11;;;;;;;14.33;2.50;;;;;;;26.05;31.15;96936.03;5472493;26;20630;-70
2024/04/08 08:03:36;;;;;;;14.60;3.00;;;;;;;26.03;31.07;96940.06;5474566;26;20471;-70
2024/04/08 08:06:02;;;;;;;16.30;3.27;;;;;;;26.10;30.88;96942.53;5476768;26;20238;-70
2024/04/08 08:08:28;;;;;;;12.17;3.00;;;;;;;26.35;31.18;96931.97;5461830;26;20257;-70
2024/04/08 08:10:57;;;;;;;8.20;2.40;;;;;;;26.64;31.01;96944.16;5482544;26;20242;-68
2024/04/08 08:13:22;;;;;;;11.73;2.47;;;;;;;26.83;30.52;96939.97;5482252;26;20761;-72
2024/04/08 08:15:55;;;;;;;6.43;2.40;;;;;;;27.06;29.71;96939.75;5460075;26;20535;-69
2024/04/08 08:18:20;;;;;;;18.13;2.57;;;;;;;27.18;29.34;96931.44;5464288;26;20290;-71
2024/04/08 08:20:45;;;;;;;10.47;2.80;;;;;;;27.35;29.32;96937.38;5454961;26;20520;-71
2024/04/08 08:23:11;;;;;;;12.33;2.70;;;;;;;27.51;28.94;96942.81;5472549;26;20242;-71
2024/04/08 08:25:36;;;;;;;18.37;2.90;;;;;;;27.70;28.87;96933.13;5472029;26;20251;-70
2024/04/08 08:28:03;;;;;;;23.07;3.30;;;;;;;27.64;27.48;96934.19;5478565;26;20275;-70
2024/04/08 08:30:28;;;;;;;10.87;2.30;;;;;;;27.90;27.11;96931.47;5471026;26;20246;-70
2024/04/08 08:32:54;;;;;;;23.87;2.90;;;;;;;27.97;27.01;96925.81;5481151;26;20554;-70
2024/04/08 08:35:20;;;;;;;20.17;2.90;;;;;;;28.09;25.88;96934.44;5481862;26;20234;-70
2024/04/08 08:37:45;;;;;;;14.00;2.93;;;;;;;28.11;26.59;96926.09;5468264;26;20453;-70
2024/04/08 08:40:11;;;;;;;10.23;3.00;;;;;;;28.10;26.52;96930.69;5466620;26;20250;-71
2024/04/08 08:42:36;;;;;;;15.17;3.00;;;;;;;28.18;25.78;96926.63;5455526;26;20239;-70
2024/04/08 08:45:05;;;;;;;16.60;3.00;;;;;;;28.26;26.02;96933.34;5465329;26;20728;-70
2024/04/08 08:47:32;;;;;;;17.10;2.63;;;;;;;28.21;26.21;96920.69;5473425;26;20347;-72
2024/04/08 08:49:57;;;;;;;11.20;2.60;;;;;;;28.38;25.47;96924.94;5471702;26;20469;-71
2024/04/08 08:52:24;;;;;;;10.33;2.33;;;;;;;28.60;25.60;96914.63;5461478;26;21287;-71
2024/04/08 08:54:53;;;;;;;16.27;2.90;;;;;;;28.80;24.93;96910.25;5475084;26;20282;-72
2024/04/08 08:57:19;;;;;;;14.53;2.60;;;;;;;28.57;24.08;96901.69;5467557;26;20510;-72
2024/04/08 08:59:46;;;;;;;10.97;2.60;;;;;;;28.78;24.82;96907.00;5468999;26;20666;-71
2024/04/08 09:02:14;;;;;;;11.63;2.90;;;;;;;28.85;24.33;96896.75;5476935;26;20250;-72
2024/04/08 09:04:40;;;;;;;15.93;2.80;;;;;;;29.04;24.43;96901.47;5475220;26;21131;-70
2024/04/08 09:07:06;;;;;;;14.17;2.83;;;;;;;29.28;24.75;96909.69;5465570;26;20580;-71
2024/04/08 09:09:31;;;;;;;6.30;2.50;;;;;;;29.28;23.87;96899.69;5471310;26;21067;-71
2024/04/08 09:11:57;;;;;;;14.43;2.93;;;;;;;29.38;23.67;96895.31;5481083;26;20678;-72
2024/04/08 09:14:22;;;;;;;11.63;2.90;;;;;;;29.61;24.49;96898.38;5468311;26;20264;-71
2024/04/08 09:16:49;;;;;;;18.77;2.60;;;;;;;29.57;23.78;96898.13;5468204;26;20246;-70
2024/04/08 09:19:15;;;;;;;13.93;2.80;;;;;;;29.66;24.25;96898.31;5479928;26;20297;-70
2024/04/08 09:21:40;;;;;;;13.90;2.70;;;;;;;29.85;24.39;96901.13;5465305;26;20548;-70
2024/04/08 09:24:07;;;;;;;17.30;3.40;;;;;;;30.00;23.62;96897.47;5480301;26;20701;-70
2024/04/08 09:26:33;;;;;;;12.97;2.37;;;;;;;30.01;22.82;96896.41;5470300;26;20247;-71
2024/04/08 09:28:59;;;;;;;20.30;3.73;;;;;;;30.07;23.63;96895.25;5475568;26;20495;-71
2024/04/08 09:31:25;;;;;;;21.20;3.27;;;;;;;30.13;23.86;96896.00;5479420;26;20822;-72
2024/04/08 09:33:51;;;;;;;19.00;2.80;;;;;;;30.29;24.84;96883.13;5482463;26;20483;-71
2024/04/08 09:36:17;;;;;;;11.33;2.33;;;;;;;30.15;23.32;96889.22;5477161;26;20465;-71
2024/04/08 09:38:43;;;;;;;14.67;2.70;;;;;;;30.00;22.97;96895.59;5481549;26;20327;-72
2024/04/08 09:41:17;;;;;;;16.77;2.57;;;;;;;30.10;23.29;96893.88;5471834;26;20333;-71
2024/04/08 09:43:43;;;;;;;17.27;2.73;;;;;;;30.33;23.51;96890.38;5462198;26;20581;-72
2024/04/08 09:46:10;;;;;;;20.93;3.37;;;;;;;30.49;23.47;96888.31;5480783;26;21093;-72
2024/04/08 09:48:36;;;;;;;19.33;2.73;;;;;;;30.44;22.16;96884.81;5485425;26;20605;-73
2024/04/08 09:51:03;;;;;;;11.43;2.30;;;;;;;30.74;21.65;96889.09;5471998;26;20513;-73
2024/04/08 09:53:33;;;;;;;13.57;2.43;;;;;;;30.97;22.00;96878.50;5464973;26;20483;-72
2024/04/08 09:56:13;;;;;;;13.93;2.50;;;;;;;31.08;21.16;96877.22;5475036;26;21117;-70
2024/04/08 09:58:39;;;;;;;10.50;2.27;;;;;;;31.27;20.95;96873.72;5478555;26;20474;-73
2024/04/08 10:01:05;;;;;;;10.70;2.13;;;;;;;31.46;20.89;96862.06;5484028;26;20523;-71
2024/04/08 10:03:50;;;;;;;20.73;2.30;;;;;;;31.46;20.58;96862.06;5474306;26;20292;-70
2024/04/08 10:06:17;;;;;;;11.27;1.90;;;;;;;31.59;20.44;96860.47;5481593;26;20475;-72
2024/04/08 10:08:44;;;;;;;11.03;2.60;;;;;;;31.76;20.77;96862.66;5480675;26;20464;-73
2024/04/08 10:11:09;;;;;;;13.23;2.50;;;;;;;31.79;20.13;96862.88;5483150;26;20516;-69
2024/04/08 10:13:47;;;;;;;14.53;2.60;;;;;;;31.97;20.22;96861.16;5476110;26;20456;-70
2024/04/08 10:16:14;;;;;;;10.33;2.37;;;;;;;32.04;20.49;96858.06;5476208;26;20242;-73
2024/04/08 10:18:52;;;;;;;10.00;2.10;;;;;;;32.10;20.25;96856.06;5469652;26;20459;-73
2024/04/08 10:21:18;;;;;;;6.77;2.03;;;;;;;32.15;19.21;96859.47;5472947;26;20895;-72
2024/04/08 10:23:44;;;;;;;9.93;1.97;;;;;;;32.24;19.02;96861.47;5435052;26;20473;-71
2024/04/08 10:26:11;;;;;;;11.10;2.27;;;;;;;32.27;19.78;96855.47;5465197;26;20515;-71
2024/04/08 10:28:41;;;;;;;9.40;2.40;;;;;;;32.21;19.53;96857.47;5474194;26;21041;-72
2024/04/08 10:31:06;;;;;;;19.40;2.60;;;;;;;32.14;18.44;96863.28;5480161;26;20984;-74
2024/04/08 10:33:32;;;;;;;14.97;2.20;;;;;;;32.22;18.00;96861.78;5460193;26;20578;-72
2024/04/08 10:35:57;;;;;;;9.53;2.67;;;;;;;32.31;16.99;96857.28;5468235;26;20254;-70
2024/04/08 10:38:23;;;;;;;10.03;2.30;;;;;;;32.52;18.80;96850.63;5482096;26;20242;-72
2024/04/08 10:40:48;;;;;;;15.03;2.20;;;;;;;32.69;17.59;96836.41;5485510;26;20250;-71
2024/04/08 10:43:13;;;;;;;7.90;2.00;;;;;;;32.84;17.45;96833.41;5484614;26;20788;-72
2024/04/08 10:45:39;;;;;;;6.90;2.30;;;;;;;33.05;17.17;96833.72;5476808;26;20280;-72
2024/04/08 10:48:09;;;;;;;5.93;1.90;;;;;;;33.21;17.82;96834.16;5479248;26;20243;-71
2024/04/08 10:50:34;;;;;;;15.67;2.50;;;;;;;33.23;17.12;96831.94;5467212;26;20247;-71
2024/04/08 10:53:01;;;;;;;13.50;2.00;;;;;;;33.22;17.45;96830.31;5482951;26;20524;-71
2024/04/08 10:55:26;;;;;;;15.37;1.80;;;;;;;33.29;17.01;96818.22;5482948;26;20234;-74
2024/04/08 10:57:52;;;;;;;13.03;2.43;;;;;;;33.39;16.64;96820.72;5484910;26;20502;-71
2024/04/08 11:00:17;;;;;;;10.13;1.93;;;;;;;33.36;17.75;96818.63;5483027;26;20322;-71
2024/04/08 11:02:43;;;;;;;9.97;2.30;;;;;;;33.46;19.08;96812.91;5462959;26;20358;-73
2024/04/08 11:05:09;;;;;;;10.93;2.20;;;;;;;33.63;17.95;96819.56;5466213;26;20266;-72
2024/04/08 11:07:37;;;;;;;18.17;2.80;;;;;;;33.74;16.63;96817.34;5471675;26;20778;-74
2024/04/08 11:10:08;;;;;;;11.73;2.30;;;;;;;33.81;17.44;96813.06;5482645;26;20292;-71
2024/04/08 11:12:33;;;;;;;9.40;2.53;;;;;;;33.93;17.18;96814.41;5476586;26;20596;-72
2024/04/08 11:15:00;;;;;;;15.43;2.90;;;;;;;34.02;17.14;96828.84;5474258;26;20465;-72
2024/04/08 11:17:27;;;;;;;14.30;1.90;;;;;;;33.97;16.76;96818.13;5478480;26;20242;-73
2024/04/08 11:19:56;;;;;;;8.00;1.60;;;;;;;33.97;15.71;96818.91;5483681;26;20518;-72
2024/04/08 11:22:21;;;;;;;11.73;2.10;;;;;;;34.00;15.59;96833.81;5480920;26;21092;-72